Skip Navigation Links Skip Navigation Links

Current Weather

Bisha, Saudi Arabia

For information only: do not use for flight planning or navigation.
Latest weather
Observation time Tuesday, October 19, 2021 12:00 PM +03
Local time Tuesday, October 19, 2021 12:26 PM +03
Flight conditions Visual Meteorological Conditions
Winds
Wind direction East (100°)
Wind speed 12 mph
Visibility 6.2 mi.
Sky condition
Ceiling unlimited
Sky clear
Temperature 90°F
Dewpoint 41°F
Altimeter 30.09 in.Hg
Derived measurements
Relative humidity 18%
Heat index 90°F
Density altitude 3049 ft.
Remarks
Ceiling and visibility OK.
No significant changes expected in the next two hours.
METAR OEBH 190900Z 10010KT CAVOK 32/05 Q1019 NOSIG

Settings

Location code

InnerDrive.Weather 4.0.6770.0 Release CLR 4.0.30319.42000
Copyright ©2018 Inner Drive Technology. All rights reserved. Portions Copyright ©1986-2018 David Braverman.

Find weather

Site navigation


Skip Navigation Links

Place info

Page info

PayPal - The safer, easier way to pay online!

Return home.

Copyright ©2021 Inner Drive Technology. Purveyors of fine, hand-crafted computer software. Page printed 2021-10-19T09:26:38 UTC.